Flight Track Log - Related Links

Times and Time Zones

All times are in EST time to prevent confusion due to time zone crossing. See the FSR411 flight status page for this flight to view local times or setup timezone preferences in your user account.

Time Position Orientation Groundspeed Altitude Reporting Facility
EST Latitude Longitude Course Direction KTS MPH feet Rate Location/Type
Mon 02:15:34 PM 40.0186 -88.1914 North 231 266 27,000  Level Chicago Center
Mon 02:16:36 PM 40.0792 -88.1508 27° Northeast 284 327 7,600 -7,805 Descending Chicago Center
Mon 02:17:37 PM 40.1514 -88.1867 339° North 285 328 11,000 3,415 Climbing Chicago Center
Mon 02:18:39 PM 40.2281 -88.2364 334° Northwest 310 357 14,600 3,968 Climbing Chicago Center
Mon 02:19:41 PM 40.3442 -88.2358 360° North 344 396 19,200 3,435 Climbing Chicago Center
Mon 02:20:00 PM 40.5239 -88.2626 North  Level Estimated
Mon 02:20:43 PM 40.4503 -88.2325 North 369 425 21,700  Level Chicago Center
Mon 02:21:45 PM 40.5653 -88.2306 North 402 463 23,800 1,935 Climbing Chicago Center
Mon 02:22:47 PM 40.6881 -88.2275 North 430 495 25,700 1,500 Climbing Chicago Center
Mon 02:23:49 PM 40.8186 -88.2253 North 459 528 26,900 629 Climbing Chicago Center
Mon 02:24:51 PM 40.9542 -88.2208 North 480 552 27,000 48 Climbing Chicago Center
Mon 02:25:53 PM 41.1144 -88.2167 North 481 554 27,000  Level Chicago Center
Mon 02:26:55 PM 41.2478 -88.2142 North 478 550 27,000  Level Chicago Center
Mon 02:27:57 PM 41.3817 -88.2111 North 474 545 27,000  Level Chicago Center
Mon 02:28:59 PM 41.5183 -88.2081 North 477 549 27,000  Level Chicago Center
Mon 02:30:01 PM 41.6522 -88.2044 North 477 549 27,000  Level Chicago Center
Mon 02:31:03 PM 41.7831 -88.2011 North 472 543 27,000  Level Chicago Center
Mon 02:32:05 PM 41.9153 -88.1978 North 473 544 27,000  Level Chicago Center
Mon 02:33:07 PM 42.0461 -88.1953 North 472 543 27,000  Level Chicago Center
Mon 02:34:09 PM 42.2039 -88.1917 North 473 544 27,000  Level Chicago Center
Mon 02:35:11 PM 42.3336 -88.1872 North 475 547 27,000  Level Chicago Center
Mon 02:36:13 PM 42.4656 -88.1839 North 475 547 27,000 -387 Level Chicago Center
Mon 02:37:15 PM 42.5981 -88.1803 North 477 549 26,200 -1,355 Descending Chicago Center
Mon 02:38:17 PM 42.7256 -88.1764 North 463 533 24,200 -2,129 Descending Chicago Center
Mon 02:39:19 PM 42.8769 -88.1717 North 455 524 21,800 -2,129 Descending Chicago Center
Mon 02:40:21 PM 42.9994 -88.1703 360° North 445 512 19,800 -1,790 Descending Chicago Center
Mon 02:41:23 PM 43.1186 -88.1667 North 435 501 18,100 -1,258 Descending Chicago Center
Mon 02:42:25 PM 43.2322 -88.1639 North 416 479 17,200 -919 Descending Chicago Center
Mon 02:43:27 PM 43.3406 -88.1608 North 398 458 16,200 -1,056 Descending Chicago Center
Mon 02:44:30 PM 43.4739 -88.1567 North 402 463 15,000 -1,200 Descending Chicago Center
Mon 02:45:32 PM 43.5847 -88.1536 North 404 465 13,700 -1,403 Descending Chicago Center
Mon 02:46:34 PM 43.6969 -88.1517 North 407 468 12,100 -1,452 Descending Chicago Center
Mon 02:47:36 PM 43.8097 -88.1489 North 409 471 10,700 -1,016 Descending Chicago Center
Mon 02:48:38 PM 43.9136 -88.1653 354° North 375 432 10,000 -823 Descending Chicago Center
Mon 02:49:40 PM 44.0125 -88.2022 345° North 312 359 9,000 -1,258 Descending Chicago Center
Mon 02:50:42 PM 44.0944 -88.2300 346° North 305 351 7,400 -1,403 Descending Chicago Center
Mon 02:51:44 PM 44.1786 -88.2428 354° North 306 352 6,100 -677 Descending Chicago Center
Mon 02:52:46 PM 44.2594 -88.2528 355° North 298 343 6,000 -48 Descending Chicago Center
Mon 02:53:48 PM 44.3286 -88.2422 North 263 303 6,000  Level Chicago Center
Mon 02:54:51 PM 44.4072 -88.2350 North 240 276 6,000 -96 Level Chicago Center
Mon 02:55:53 PM 44.4733 -88.2286 North 238 274 5,800 -641 Descending Chicago Center
Mon 02:57:02 PM 44.5533 -88.2208 North 241 277 4,600 -916 Descending Minneapolis Center
Mon 02:58:04 PM 44.6056 -88.1969 18° North 226 260 3,800 -797 Descending Minneapolis Center
Mon 02:59:10 PM 44.5925 -88.1383 107° East 189 217 2,900 -469 Descending Minneapolis Center
Mon 03:00:12 PM 44.5594 -88.1175 156° South 179 206 2,800 -97 Descending Minneapolis Center

Login

Don't have an account? Register now (free) for customized features, flight alerts, and more!